Current | Forecast
Updated: 10:22 AM JST on December 11, 2017
Observed at Ozuki AB, Japan
Temperature 46°F
Windchill 39°F
Humidity 46%
Dew Point 27°F
Wind NNW at 18 mph
Wind Gust 30 mph
Pressure 30.06 in (Rising)
Conditions Mostly Cloudy
Visibility 6.2 miles
UV 2 out of 16
Clouds (FEW) : 1500 ft
Mostly Cloudy (BKN) : 4000 ft
Mostly Cloudy (BKN) : 6000 ft
Yesterday's Maximum 50°F
Yesterday's Minimum 48°F approx.
Yesterday's Heating Degree Days 16 approx.
Sunrise7:10 AM JST
Sunset5:04 PM JST
Moon Rise12:17 AM JST
Moon Set1:06 PM JST
Moon PhaseMoon Phase
Last Quarter
Raw METARSPECI RJOZ 110122Z 33016G26KT 9999 FEW015 BKN040 BKN060 08/M03 Q1018 RMK 1CU015 5CU040 7SC060 A3007


Monday
. High: 69° F.
Tuesday
. High: 71° F.
Wednesday
. High: 68° F.
Thursday
. High: 71° F.
Friday
. High: 75° F.
Saturday
. High: 71° F.
Sunday
. High: 77° F.
Monday
. High: 75° F.

Units: English | Metric

Find the Weather for any City, State or Zipcode, or Country:

U.S. State List | Severe Weather | Tropical Storms | Ski Conditions
United States | Canada | Central America | South America | Asia | Europe | Australia | Africa | Islands

Weather Underground

© Copyright 2017
The Weather Company, LLC